createdAt,value
2022-10-01T00:00:01.852Z,99182.88
2022-10-01T00:00:13.888Z,99180.28
2022-10-01T00:00:26.644Z,99181.06
2022-10-01T00:00:38.773Z,99178.47
2022-10-01T00:00:52.423Z,99179.31
2022-10-01T00:01:06.496Z,99179.28
2022-10-01T00:01:19.706Z,99175.78
2022-10-01T00:01:32.167Z,99175.78
2022-10-01T00:01:44.393Z,99174.81
2022-10-01T00:01:56.835Z,99175.66
2022-10-01T00:02:08.781Z,99176.50
2022-10-01T00:02:20.702Z,99173.91
2022-10-01T00:02:37.039Z,99181.63
2022-10-01T00:02:49.013Z,99172.19
2022-10-01T00:03:01.569Z,99174.78
2022-10-01T00:03:13.683Z,99176.50
2022-10-01T00:03:27.183Z,99173.06
2022-10-01T00:03:39.454Z,99166.19
2022-10-01T00:03:51.360Z,99170.47
2022-10-01T00:04:03.252Z,99173.84
2022-10-01T00:04:15.193Z,99173.84
2022-10-01T00:04:27.489Z,99175.66
2022-10-01T00:04:40.028Z,99174.81
2022-10-01T00:04:51.953Z,99176.59
2022-10-01T00:05:07.600Z,99181.78
2022-10-01T00:05:19.890Z,99179.19
2022-10-01T00:05:31.757Z,99173.13
2022-10-01T00:05:44.083Z,99179.19
2022-10-01T00:06:20.022Z,99177.38
2022-10-01T00:06:31.910Z,99177.38
2022-10-01T00:06:43.810Z,99182.56
2022-10-01T00:06:59.136Z,99182.44
2022-10-01T00:07:14.925Z,99182.44
2022-10-01T00:07:27.353Z,99173.75
2022-10-01T00:07:40.950Z,99179.84
2022-10-01T00:07:52.846Z,99182.44
2022-10-01T00:08:04.823Z,99184.13
2022-10-01T00:08:16.712Z,99182.44
2022-10-01T00:08:29.895Z,99180.75
2022-10-01T00:08:42.826Z,99178.06
2022-10-01T00:08:54.952Z,99185.94
2022-10-01T00:09:06.881Z,99178.06
2022-10-01T00:09:18.973Z,99172.97
2022-10-01T00:09:33.617Z,99179.09
2022-10-01T00:09:46.436Z,99177.41
2022-10-01T00:09:58.323Z,99183.50
2022-10-01T00:10:12.376Z,99176.59
2022-10-01T00:10:24.253Z,99176.50
2022-10-01T00:10:38.175Z,99182.47
2022-10-01T00:10:50.035Z,99179.03
2022-10-01T00:11:14.593Z,99179.97
2022-10-01T00:11:26.667Z,99185.19
2022-10-01T00:11:38.616Z,99177.38
2022-10-01T00:11:51.069Z,99181.59
2022-10-01T00:12:03.440Z,99177.25
2022-10-01T00:12:16.731Z,99175.56
2022-10-01T00:12:28.618Z,99183.44
2022-10-01T00:12:46.043Z,99184.38
2022-10-01T00:12:58.846Z,99180.84
2022-10-01T00:13:11.149Z,99181.78
2022-10-01T00:13:23.062Z,99180.97
2022-10-01T00:13:36.020Z,99182.66
2022-10-01T00:13:49.073Z,99177.56
2022-10-01T00:14:01.766Z,99184.47
2022-10-01T00:14:13.633Z,99180.97
2022-10-01T00:14:27.529Z,99184.47
2022-10-01T00:14:39.543Z,99188.78
2022-10-01T00:14:52.036Z,99180.97
2022-10-01T00:15:13.299Z,99175.88
2022-10-01T00:15:28.948Z,99177.69
2022-10-01T00:15:41.315Z,99178.53
2022-10-01T00:15:53.185Z,99179.38
2022-10-01T00:16:08.235Z,99184.56
2022-10-01T00:16:27.329Z,99182.09
2022-10-01T00:16:39.305Z,99184.56
2022-10-01T00:16:51.466Z,99182.94
2022-10-01T00:17:03.452Z,99182.03
2022-10-01T00:17:16.291Z,99181.16
2022-10-01T00:17:28.169Z,99182.03
2022-10-01T00:17:40.875Z,99177.69
2022-10-01T00:17:53.589Z,99182.94
2022-10-01T00:18:05.483Z,99182.88
2022-10-01T00:18:17.355Z,99177.69
2022-10-01T00:18:30.906Z,99184.56
2022-10-01T00:18:45.546Z,99172.50
2022-10-01T00:18:57.997Z,99184.56
2022-10-01T00:19:13.948Z,99186.28
2022-10-01T00:19:25.812Z,99180.16
2022-10-01T00:19:37.762Z,99180.97
2022-10-01T00:19:49.852Z,99177.47
2022-10-01T00:20:10.538Z,99182.66
2022-10-01T00:20:26.120Z,99184.47
2022-10-01T00:20:43.417Z,99191.34
2022-10-01T00:20:55.306Z,99186.16
2022-10-01T00:21:08.962Z,99180.97
2022-10-01T00:21:23.651Z,99174.09
2022-10-01T00:21:35.818Z,99176.63
2022-10-01T00:21:48.405Z,99180.97
2022-10-01T00:22:00.482Z,99181.81
2022-10-01T00:22:12.392Z,99178.44
2022-10-01T00:22:24.675Z,99180.09
2022-10-01T00:22:36.773Z,99180.97
2022-10-01T00:22:48.672Z,99178.44
2022-10-01T00:23:00.784Z,99180.09
2022-10-01T00:23:14.691Z,99185.31
2022-10-01T00:23:26.573Z,99174.09
2022-10-01T00:23:38.658Z,99174.91
2022-10-01T00:23:59.103Z,99173.28
2022-10-01T00:24:12.807Z,99177.69
2022-10-01T00:24:24.711Z,99182.97
2022-10-01T00:24:37.607Z,99186.50
2022-10-01T00:24:49.732Z,99179.72
2022-10-01T00:25:01.987Z,99176.22
2022-10-01T00:25:13.881Z,99180.56
2022-10-01T00:25:25.784Z,99184.00
2022-10-01T00:25:37.846Z,99184.91
2022-10-01T00:25:52.158Z,99178.94
2022-10-01T00:26:16.897Z,99180.72
2022-10-01T00:26:31.931Z,99185.88
2022-10-01T00:26:45.467Z,99186.75
2022-10-01T00:26:57.692Z,99179.81
2022-10-01T00:27:10.571Z,99192.97
2022-10-01T00:27:22.440Z,99187.78
2022-10-01T00:27:35.448Z,99181.84
2022-10-01T00:27:47.358Z,99182.75
2022-10-01T00:27:59.898Z,99187.03
2022-10-01T00:28:12.109Z,99188.75
2022-10-01T00:28:24.271Z,99185.22
2022-10-01T00:28:36.815Z,99189.56
2022-10-01T00:28:54.155Z,99193.81
2022-10-01T00:29:11.899Z,99184.28
2022-10-01T00:29:23.803Z,99186.81
2022-10-01T00:29:36.477Z,99182.41
2022-10-01T00:29:48.523Z,99185.00
2022-10-01T00:30:00.852Z,99185.00
2022-10-01T00:30:13.039Z,99185.94
2022-10-01T00:30:24.962Z,99182.41
2022-10-01T00:30:40.278Z,99182.38
2022-10-01T00:30:52.446Z,99187.50
2022-10-01T00:31:07.095Z,99190.09
2022-10-01T00:31:19.217Z,99189.19
2022-10-01T00:31:32.212Z,99184.78
2022-10-01T00:31:44.516Z,99184.78
2022-10-01T00:31:57.211Z,99189.97
2022-10-01T00:32:09.906Z,99189.09
2022-10-01T00:32:21.780Z,99191.69
2022-10-01T00:32:33.745Z,99185.66
2022-10-01T00:32:45.631Z,99188.16
2022-10-01T00:32:57.533Z,99179.53
2022-10-01T00:33:09.389Z,99185.66
2022-10-01T00:33:21.276Z,99184.78
2022-10-01T00:33:33.197Z,99189.09
2022-10-01T00:33:45.133Z,99185.56
2022-10-01T00:33:59.005Z,99188.28
2022-10-01T00:34:15.362Z,99189.13
2022-10-01T00:34:28.349Z,99184.78
2022-10-01T00:34:40.223Z,99185.66
2022-10-01T00:34:53.498Z,99184.06
2022-10-01T00:35:09.828Z,99190.97
2022-10-01T00:35:22.481Z,99191.16
2022-10-01T00:35:34.457Z,99193.81
2022-10-01T00:35:46.319Z,99192.13
2022-10-01T00:35:58.485Z,99192.16
2022-10-01T00:36:11.659Z,99191.22
2022-10-01T00:36:24.204Z,99197.25
2022-10-01T00:36:36.097Z,99194.59
2022-10-01T00:36:49.198Z,99193.72
2022-10-01T00:37:01.065Z,99190.97
2022-10-01T00:37:13.041Z,99194.44
2022-10-01T00:37:25.096Z,99197.09
2022-10-01T00:37:37.710Z,99186.72
2022-10-01T00:37:51.865Z,99200.56
2022-10-01T00:38:03.750Z,99190.09
2022-10-01T00:38:15.645Z,99187.50
2022-10-01T00:38:29.094Z,99190.09
2022-10-01T00:38:41.516Z,99184.91
2022-10-01T00:38:54.212Z,99188.41
2022-10-01T00:39:06.117Z,99189.25
2022-10-01T00:39:17.987Z,99188.41
2022-10-01T00:39:29.947Z,99186.72
2022-10-01T00:39:41.811Z,99187.56
2022-10-01T00:39:53.979Z,99188.41
2022-10-01T00:40:07.004Z,99190.09
2022-10-01T00:40:22.416Z,99193.59
2022-10-01T00:40:34.478Z,99190.06
2022-10-01T00:40:46.360Z,99187.50
2022-10-01T00:40:58.800Z,99193.47
2022-10-01T00:41:10.671Z,99185.75
2022-10-01T00:41:22.759Z,99187.47
2022-10-01T00:41:35.660Z,99188.28
2022-10-01T00:41:48.032Z,99192.53
2022-10-01T00:41:59.898Z,99187.34
2022-10-01T00:42:21.999Z,99195.91
2022-10-01T00:42:33.940Z,99195.91
2022-10-01T00:42:45.984Z,99191.56
2022-10-01T00:42:57.851Z,99191.56
2022-10-01T00:43:28.438Z,99193.25
2022-10-01T00:43:50.263Z,99192.47
2022-10-01T00:44:31.549Z,99196.09
2022-10-01T00:44:44.022Z,99191.69
2022-10-01T00:44:56.358Z,99193.34
2022-10-01T00:45:11.592Z,99195.91
2022-10-01T00:45:23.554Z,99196.81
2022-10-01T00:45:35.800Z,99200.31
2022-10-01T00:45:49.105Z,99197.66
2022-10-01T00:46:07.476Z,99191.56
2022-10-01T00:46:25.071Z,99193.25
2022-10-01T00:46:43.476Z,99198.44
2022-10-01T00:46:58.461Z,99193.25
2022-10-01T00:47:53.245Z,99197.50
2022-10-01T00:48:05.157Z,99193.25
2022-10-01T00:48:17.591Z,99198.44
2022-10-01T00:48:34.727Z,99194.94
2022-10-01T00:49:00.980Z,99192.25
2022-10-01T00:49:20.365Z,99197.44
2022-10-01T00:49:35.443Z,99191.34
2022-10-01T00:49:50.514Z,99187.84
2022-10-01T00:50:16.281Z,99196.56
2022-10-01T00:50:34.955Z,99192.25
2022-10-01T00:50:49.107Z,99189.66
2022-10-01T00:51:01.148Z,99194.84
2022-10-01T00:51:13.956Z,99189.66
2022-10-01T00:51:34.178Z,99194.84
2022-10-01T00:52:03.198Z,99189.03
2022-10-01T00:52:22.207Z,99193.34
2022-10-01T00:52:39.015Z,99189.03
2022-10-01T00:52:55.390Z,99187.28
2022-10-01T00:53:12.239Z,99189.88
2022-10-01T00:53:25.107Z,99186.53
2022-10-01T00:53:38.231Z,99191.78
2022-10-01T00:53:50.667Z,99188.28
2022-10-01T00:54:10.720Z,99186.50
2022-10-01T00:54:34.514Z,99189.97
2022-10-01T00:54:50.727Z,99187.38
2022-10-01T00:55:11.821Z,99190.09
2022-10-01T00:55:28.409Z,99180.56
2022-10-01T00:55:55.285Z,99182.38
2022-10-01T00:56:07.454Z,99180.56
2022-10-01T00:56:19.623Z,99181.41
2022-10-01T00:56:32.273Z,99182.28
2022-10-01T00:56:45.395Z,99183.16
2022-10-01T00:57:00.267Z,99191.78
2022-10-01T00:57:16.708Z,99191.06
2022-10-01T00:57:29.464Z,99184.22
2022-10-01T00:57:43.704Z,99187.69
2022-10-01T00:57:56.489Z,99179.16
2022-10-01T00:58:12.920Z,99181.63
2022-10-01T00:58:25.276Z,99186.81
2022-10-01T00:58:37.683Z,99173.78
2022-10-01T00:58:51.849Z,99184.13
2022-10-01T00:59:04.967Z,99184.13
2022-10-01T00:59:17.242Z,99182.38
2022-10-01T00:59:30.269Z,99181.53
2022-10-01T00:59:43.092Z,99190.09
2022-10-01T00:59:59.854Z,99183.16
2022-10-01T01:00:14.062Z,99178.00
2022-10-01T01:00:26.042Z,99177.22
2022-10-01T01:00:39.238Z,99177.16
2022-10-01T01:00:53.868Z,99186.72
2022-10-01T01:01:05.987Z,99174.59
2022-10-01T01:01:19.090Z,99179.81
2022-10-01T01:01:31.341Z,99180.59
2022-10-01T01:01:44.501Z,99183.19
2022-10-01T01:01:56.907Z,99177.22
2022-10-01T01:02:10.869Z,99176.34
2022-10-01T01:02:22.863Z,99179.72
2022-10-01T01:02:34.831Z,99177.13
2022-10-01T01:02:46.987Z,99184.91
2022-10-01T01:02:58.968Z,99185.78
2022-10-01T01:03:11.773Z,99177.16
2022-10-01T01:03:24.584Z,99185.75
2022-10-01T01:03:37.171Z,99176.22
2022-10-01T01:03:49.058Z,99182.31
2022-10-01T01:04:01.198Z,99183.19
2022-10-01T01:04:19.181Z,99180.59
2022-10-01T01:04:32.407Z,99181.53
2022-10-01T01:04:44.751Z,99182.38
2022-10-01T01:04:56.788Z,99179.81
2022-10-01T01:05:13.273Z,99179.03
2022-10-01T01:05:25.278Z,99171.38
2022-10-01T01:05:37.271Z,99173.91
2022-10-01T01:05:50.176Z,99181.69
2022-10-01T01:06:03.324Z,99179.16
2022-10-01T01:06:15.243Z,99178.22
2022-10-01T01:06:27.368Z,99185.13
2022-10-01T01:06:39.277Z,99185.13
2022-10-01T01:06:58.292Z,99176.44
2022-10-01T01:07:11.077Z,99177.22
2022-10-01T01:07:23.054Z,99184.13
2022-10-01T01:07:36.288Z,99174.63
2022-10-01T01:07:50.741Z,99177.31
2022-10-01T01:08:03.716Z,99176.50
2022-10-01T01:08:16.897Z,99175.63
2022-10-01T01:08:29.430Z,99180.00
2022-10-01T01:08:42.773Z,99174.75
2022-10-01T01:08:56.173Z,99173.84
2022-10-01T01:09:08.068Z,99178.13
2022-10-01T01:09:21.517Z,99174.63
2022-10-01T01:09:42.401Z,99178.94
2022-10-01T01:09:55.179Z,99171.16
2022-10-01T01:10:08.439Z,99169.38
2022-10-01T01:10:45.887Z,99169.44
2022-10-01T01:11:09.098Z,99169.56
2022-10-01T01:11:45.648Z,99165.97
2022-10-01T01:12:24.842Z,99172.03
2022-10-01T01:12:51.833Z,99172.13
2022-10-01T01:13:17.188Z,99170.44
2022-10-01T01:13:49.548Z,99174.63
2022-10-01T01:14:39.456Z,99162.44
2022-10-01T01:15:07.453Z,99171.25
2022-10-01T01:15:41.161Z,99169.38
2022-10-01T01:16:33.862Z,99169.34
2022-10-01T01:16:54.186Z,99165.91
2022-10-01T01:17:12.872Z,99170.22
2022-10-01T01:17:40.497Z,99160.72
2022-10-01T01:18:22.909Z,99167.63
2022-10-01T01:19:00.659Z,99163.22
2022-10-01T01:19:38.483Z,99162.56
2022-10-01T01:20:24.293Z,99166.84
2022-10-01T01:20:42.033Z,99165.03
2022-10-01T01:21:09.736Z,99165.22
2022-10-01T01:21:30.898Z,99166.97
2022-10-01T01:21:48.870Z,99161.78
2022-10-01T01:22:05.952Z,99164.25
2022-10-01T01:22:22.890Z,99162.63
2022-10-01T01:22:41.485Z,99162.78
2022-10-01T01:23:06.029Z,99163.63
2022-10-01T01:23:18.339Z,99158.50
2022-10-01T01:23:32.952Z,99158.44
2022-10-01T01:24:04.867Z,99165.34
2022-10-01T01:24:37.834Z,99165.34
2022-10-01T01:24:59.579Z,99162.66
2022-10-01T01:25:18.156Z,99160.03
2022-10-01T01:26:12.182Z,99158.34
2022-10-01T01:26:41.077Z,99159.41
2022-10-01T01:26:58.643Z,99161.88
2022-10-01T01:27:16.276Z,99160.19
2022-10-01T01:27:48.979Z,99155.84
2022-10-01T01:28:19.106Z,99161.00
2022-10-01T01:28:57.708Z,99157.59
2022-10-01T01:29:25.150Z,99150.72
2022-10-01T01:29:55.315Z,99149.88
2022-10-01T01:30:14.422Z,99147.22
2022-10-01T01:30:26.836Z,99148.91
2022-10-01T01:30:41.270Z,99156.69
2022-10-01T01:30:58.170Z,99142.25
2022-10-01T01:31:23.004Z,99147.50
2022-10-01T01:31:46.277Z,99140.47
2022-10-01T01:32:09.424Z,99145.59
2022-10-01T01:32:34.914Z,99144.69
2022-10-01T01:32:46.735Z,99136.00
2022-10-01T01:33:04.795Z,99140.22
2022-10-01T01:33:20.400Z,99138.44
2022-10-01T01:33:35.454Z,99132.41
2022-10-01T01:33:51.787Z,99141.03
2022-10-01T01:34:12.375Z,99128.16
2022-10-01T01:34:30.000Z,99138.66
2022-10-01T01:34:45.411Z,99136.84
2022-10-01T01:35:02.191Z,99140.22
2022-10-01T01:35:22.057Z,99135.00
2022-10-01T01:35:40.383Z,99136.72
2022-10-01T01:35:56.496Z,99134.81
2022-10-01T01:36:16.277Z,99134.91
2022-10-01T01:36:35.501Z,99129.91
2022-10-01T01:36:55.777Z,99132.56
2022-10-01T01:37:12.667Z,99138.66
2022-10-01T01:37:27.920Z,99139.41
2022-10-01T01:37:47.259Z,99135.03
2022-10-01T01:38:03.497Z,99134.34
2022-10-01T01:38:20.825Z,99137.16
2022-10-01T01:38:38.383Z,99133.69
2022-10-01T01:38:55.357Z,99130.13
2022-10-01T01:39:11.683Z,99137.06
2022-10-01T01:39:26.960Z,99134.34
2022-10-01T01:39:43.896Z,99135.38
2022-10-01T01:39:59.744Z,99132.72
2022-10-01T01:40:14.587Z,99125.78
2022-10-01T01:40:28.422Z,99129.22
2022-10-01T01:40:43.831Z,99132.50
2022-10-01T01:41:00.384Z,99131.53
2022-10-01T01:41:15.497Z,99134.88
2022-10-01T01:41:32.396Z,99134.81
2022-10-01T01:41:50.001Z,99133.13
2022-10-01T01:42:13.348Z,99133.13
2022-10-01T01:42:31.204Z,99136.50
2022-10-01T01:42:46.093Z,99136.41
2022-10-01T01:43:05.607Z,99131.22
2022-10-01T01:43:22.694Z,99130.28
2022-10-01T01:43:43.927Z,99129.50
2022-10-01T01:44:00.497Z,99125.19
2022-10-01T01:44:12.809Z,99131.31
2022-10-01T01:44:29.605Z,99128.72
2022-10-01T01:44:45.806Z,99132.09
2022-10-01T01:45:00.961Z,99134.69
2022-10-01T01:45:18.840Z,99127.91
2022-10-01T01:45:31.838Z,99129.63
2022-10-01T01:45:44.817Z,99132.22
2022-10-01T01:45:59.576Z,99133.00
2022-10-01T01:46:14.161Z,99127.81
2022-10-01T01:46:31.930Z,99126.03
2022-10-01T01:46:48.474Z,99125.19
2022-10-01T01:47:03.471Z,99132.88
2022-10-01T01:47:19.140Z,99125.09
2022-10-01T01:47:32.846Z,99129.50
2022-10-01T01:47:45.955Z,99128.63
2022-10-01T01:48:02.190Z,99127.81
2022-10-01T01:48:14.779Z,99129.50
2022-10-01T01:48:29.605Z,99126.03
2022-10-01T01:48:44.192Z,99126.91
2022-10-01T01:48:57.616Z,99120.00
2022-10-01T01:49:09.749Z,99126.84
2022-10-01T01:49:23.575Z,99132.09
2022-10-01T01:49:36.292Z,99126.91
2022-10-01T01:49:50.928Z,99117.44
2022-10-01T01:50:04.712Z,99128.78
2022-10-01T01:50:17.758Z,99122.72
2022-10-01T01:50:34.363Z,99128.84
2022-10-01T01:51:20.921Z,99124.53
2022-10-01T01:51:41.118Z,99124.44
2022-10-01T01:52:15.803Z,99120.13
2022-10-01T01:52:27.811Z,99118.47
2022-10-01T01:52:39.934Z,99120.22
2022-10-01T01:52:56.208Z,99123.69
2022-10-01T01:53:08.324Z,99119.34
2022-10-01T01:53:20.259Z,99118.47
2022-10-01T01:53:32.379Z,99121.06
2022-10-01T01:53:44.367Z,99118.50
2022-10-01T01:53:56.371Z,99121.06
2022-10-01T01:54:08.922Z,99121.91
2022-10-01T01:54:21.030Z,99120.22
2022-10-01T01:54:35.767Z,99109.84
2022-10-01T01:54:51.090Z,99115.88
2022-10-01T01:55:08.393Z,99114.91
2022-10-01T01:55:25.598Z,99112.25
2022-10-01T01:55:38.289Z,99114.84
2022-10-01T01:55:50.555Z,99115.63
2022-10-01T01:56:02.660Z,99117.44
2022-10-01T01:56:14.605Z,99114.25
2022-10-01T01:56:26.568Z,99115.13
2022-10-01T01:56:38.770Z,99111.66
2022-10-01T01:56:51.631Z,99109.75
2022-10-01T01:57:04.801Z,99112.31
2022-10-01T01:57:19.819Z,99111.28
2022-10-01T01:57:33.377Z,99117.31
2022-10-01T01:57:45.777Z,99113.00
2022-10-01T01:57:58.545Z,99112.03
2022-10-01T01:58:10.467Z,99110.22
2022-10-01T01:58:24.015Z,99110.09
2022-10-01T01:58:38.001Z,99116.88
2022-10-01T01:58:50.972Z,99111.56
2022-10-01T01:59:03.500Z,99115.78
2022-10-01T01:59:16.319Z,99109.16
2022-10-01T01:59:28.560Z,99114.56
2022-10-01T01:59:42.275Z,99112.88
2022-10-01T01:59:55.102Z,99114.63
2022-10-01T02:00:09.168Z,99117.16
2022-10-01T02:00:22.374Z,99108.47
2022-10-01T02:00:34.946Z,99113.59
2022-10-01T02:00:52.488Z,99108.31
2022-10-01T02:01:04.658Z,99116.75
2022-10-01T02:01:37.652Z,99107.16
2022-10-01T02:01:51.144Z,99113.97
2022-10-01T02:02:06.653Z,99109.66
2022-10-01T02:02:28.610Z,99112.13
2022-10-01T02:02:46.888Z,99104.31
2022-10-01T02:02:59.083Z,99103.34
2022-10-01T02:03:11.568Z,99108.63
2022-10-01T02:03:26.644Z,99100.84
2022-10-01T02:03:38.600Z,99109.31
2022-10-01T02:03:50.934Z,99100.59
2022-10-01T02:04:35.004Z,99102.16
2022-10-01T02:04:54.870Z,99105.50
2022-10-01T02:05:13.894Z,99107.97
2022-10-01T02:05:36.956Z,99104.34
2022-10-01T02:06:02.175Z,99107.53
2022-10-01T02:06:33.419Z,99103.00
2022-10-01T02:07:09.580Z,99107.97
2022-10-01T02:07:30.376Z,99105.19
2022-10-01T02:07:47.803Z,99104.25
2022-10-01T02:08:27.629Z,99100.63
2022-10-01T02:09:01.622Z,99102.19
2022-10-01T02:09:34.927Z,99103.66
2022-10-01T02:10:29.156Z,99100.13
2022-10-01T02:11:15.537Z,99093.63
2022-10-01T02:11:40.158Z,99093.38
2022-10-01T02:12:20.150Z,99097.66
2022-10-01T02:12:50.232Z,99097.47
2022-10-01T02:13:14.106Z,99096.59
2022-10-01T02:13:44.768Z,99092.97
2022-10-01T02:14:28.931Z,99095.34
2022-10-01T02:14:56.521Z,99101.94
2022-10-01T02:15:33.985Z,99100.19
2022-10-01T02:16:01.218Z,99100.28
2022-10-01T02:16:30.509Z,99093.00
2022-10-01T02:17:05.687Z,99094.81
2022-10-01T02:17:32.492Z,99089.25
2022-10-01T02:18:01.901Z,99089.06
2022-10-01T02:18:34.527Z,99095.94
2022-10-01T02:19:03.199Z,99092.47
2022-10-01T02:19:37.601Z,99094.00
2022-10-01T02:19:58.702Z,99098.16
2022-10-01T02:20:29.612Z,99094.47
2022-10-01T02:20:59.783Z,99100.50
2022-10-01T02:21:14.327Z,99097.91
2022-10-01T02:21:42.007Z,99098.78
2022-10-01T02:22:03.268Z,99095.78
2022-10-01T02:22:23.626Z,99094.84
2022-10-01T02:22:50.255Z,99098.22
2022-10-01T02:23:10.035Z,99101.47
2022-10-01T02:23:34.253Z,99090.97
2022-10-01T02:23:58.008Z,99091.75
2022-10-01T02:24:22.461Z,99092.41
2022-10-01T02:24:47.240Z,99093.06
2022-10-01T02:25:03.675Z,99092.91
2022-10-01T02:25:18.942Z,99094.63
2022-10-01T02:25:37.547Z,99098.13
2022-10-01T02:25:53.883Z,99100.72
2022-10-01T02:26:12.763Z,99095.53
2022-10-01T02:26:28.018Z,99093.69
2022-10-01T02:26:42.958Z,99098.00
2022-10-01T02:26:57.120Z,99096.22
2022-10-01T02:27:33.952Z,99093.56
2022-10-01T02:27:56.036Z,99097.63
2022-10-01T02:28:11.507Z,99094.06
2022-10-01T02:28:24.842Z,99094.91
2022-10-01T02:28:39.563Z,99095.75
2022-10-01T02:28:55.212Z,99092.25
2022-10-01T02:29:11.344Z,99095.63
2022-10-01T02:29:23.976Z,99096.44
2022-10-01T02:29:37.758Z,99095.63
2022-10-01T02:29:52.409Z,99093.91
2022-10-01T02:30:07.866Z,99090.53
2022-10-01T02:30:19.874Z,99097.44
2022-10-01T02:30:35.574Z,99088.72
2022-10-01T02:30:48.971Z,99095.75
2022-10-01T02:31:02.536Z,99094.91
2022-10-01T02:31:15.652Z,99092.25
2022-10-01T02:31:30.539Z,99087.03
2022-10-01T02:31:42.680Z,99091.31
2022-10-01T02:31:56.540Z,99092.09
2022-10-01T02:32:10.669Z,99090.41
2022-10-01T02:32:24.019Z,99094.75
2022-10-01T02:32:39.264Z,99081.81
2022-10-01T02:32:52.460Z,99086.03
2022-10-01T02:33:06.873Z,99087.94
2022-10-01T02:33:24.781Z,99092.16
2022-10-01T02:33:37.861Z,99086.09
2022-10-01T02:33:53.040Z,99086.88
2022-10-01T02:34:12.400Z,99081.66
2022-10-01T02:34:29.528Z,99087.66
2022-10-01T02:34:44.346Z,99086.81
2022-10-01T02:34:57.753Z,99084.22
2022-10-01T02:35:16.569Z,99081.53
2022-10-01T02:35:31.660Z,99085.81
2022-10-01T02:35:46.549Z,99081.38
2022-10-01T02:36:01.584Z,99084.91
2022-10-01T02:36:15.008Z,99080.56
2022-10-01T02:36:29.624Z,99077.88
2022-10-01T02:36:45.205Z,99085.63
2022-10-01T02:37:01.229Z,99083.88
2022-10-01T02:37:13.799Z,99081.25
2022-10-01T02:37:27.506Z,99076.88
2022-10-01T02:37:42.521Z,99087.31
2022-10-01T02:37:58.595Z,99081.19
2022-10-01T02:38:12.499Z,99079.44
2022-10-01T02:38:26.038Z,99082.94
2022-10-01T02:38:42.727Z,99082.09
2022-10-01T02:38:56.425Z,99076.06
2022-10-01T02:39:10.420Z,99086.47
2022-10-01T02:39:27.274Z,99080.44
2022-10-01T02:39:41.629Z,99082.94
2022-10-01T02:39:56.705Z,99078.59
2022-10-01T02:40:15.746Z,99081.25
2022-10-01T02:40:32.341Z,99081.19
2022-10-01T02:40:46.363Z,99078.59
2022-10-01T02:41:00.934Z,99081.19
2022-10-01T02:41:18.100Z,99077.59
2022-10-01T02:41:35.197Z,99078.44
2022-10-01T02:41:50.052Z,99079.28
2022-10-01T02:42:04.766Z,99084.63
2022-10-01T02:42:20.285Z,99081.09
2022-10-01T02:42:35.455Z,99081.09
2022-10-01T02:42:51.377Z,99081.09
2022-10-01T02:43:12.362Z,99078.44
2022-10-01T02:43:42.718Z,99086.19
2022-10-01T02:44:12.311Z,99087.03
2022-10-01T02:44:30.226Z,99082.66
2022-10-01T02:44:45.158Z,99075.78
2022-10-01T02:45:02.344Z,99080.97
2022-10-01T02:45:19.473Z,99080.03
2022-10-01T02:45:37.664Z,99081.75
2022-10-01T02:45:56.473Z,99076.66
2022-10-01T02:46:21.244Z,99081.38
2022-10-01T02:46:48.255Z,99072.69
2022-10-01T02:47:06.151Z,99075.13
2022-10-01T02:47:26.421Z,99075.06
2022-10-01T02:47:47.232Z,99077.59
2022-10-01T02:48:04.612Z,99070.69
2022-10-01T02:48:17.632Z,99081.88
2022-10-01T02:48:29.892Z,99073.16
2022-10-01T02:48:42.199Z,99076.53
2022-10-01T02:48:55.170Z,99077.44
2022-10-01T02:49:07.091Z,99077.44
2022-10-01T02:49:19.596Z,99072.16
2022-10-01T02:49:31.988Z,99078.31
2022-10-01T02:49:44.343Z,99091.22
2022-10-01T02:49:56.261Z,99084.28
2022-10-01T02:50:09.382Z,99080.75
2022-10-01T02:50:24.026Z,99087.72
2022-10-01T02:50:57.108Z,99085.91
2022-10-01T02:51:11.727Z,99084.91
2022-10-01T02:51:43.869Z,99090.94
2022-10-01T02:52:20.845Z,99088.00
2022-10-01T02:52:53.507Z,99086.91
2022-10-01T02:53:09.549Z,99085.91
2022-10-01T02:53:30.203Z,99084.91
2022-10-01T02:53:45.710Z,99081.41
2022-10-01T02:54:07.369Z,99078.69
2022-10-01T02:54:21.720Z,99085.63
2022-10-01T02:54:42.920Z,99082.28
2022-10-01T02:55:03.244Z,99079.00
2022-10-01T02:55:23.246Z,99085.91
2022-10-01T02:55:40.501Z,99077.16
2022-10-01T02:55:53.890Z,99078.84
2022-10-01T02:56:07.837Z,99085.75
2022-10-01T02:56:48.410Z,99082.22
2022-10-01T02:57:19.711Z,99079.75
2022-10-01T02:57:32.796Z,99077.03
2022-10-01T02:57:45.201Z,99079.56
2022-10-01T02:57:57.688Z,99088.22
2022-10-01T02:58:09.605Z,99089.13
2022-10-01T02:58:22.121Z,99077.72
2022-10-01T02:58:34.082Z,99083.78
2022-10-01T02:58:46.092Z,99078.63
2022-10-01T02:58:57.976Z,99084.72
2022-10-01T02:59:09.846Z,99080.41
2022-10-01T02:59:22.487Z,99079.56
2022-10-01T02:59:34.395Z,99079.56
2022-10-01T02:59:46.320Z,99080.41
2022-10-01T03:00:00.796Z,99077.78
2022-10-01T03:00:16.540Z,99078.69
2022-10-01T03:00:28.629Z,99082.22
2022-10-01T03:00:40.521Z,99090.03
2022-10-01T03:00:52.985Z,99083.91
2022-10-01T03:01:06.110Z,99083.91
2022-10-01T03:01:18.060Z,99086.44
2022-10-01T03:01:30.037Z,99082.88
2022-10-01T03:01:42.253Z,99084.56
2022-10-01T03:01:54.466Z,99086.31
2022-10-01T03:02:06.691Z,99085.47
2022-10-01T03:02:20.279Z,99080.28
2022-10-01T03:02:32.932Z,99080.28
2022-10-01T03:02:44.895Z,99081.94
2022-10-01T03:02:56.915Z,99081.09
2022-10-01T03:03:08.911Z,99078.56
2022-10-01T03:03:20.903Z,99078.56
2022-10-01T03:03:32.826Z,99088.84
2022-10-01T03:03:44.814Z,99075.84
2022-10-01T03:03:56.698Z,99079.28
2022-10-01T03:04:08.672Z,99078.56
2022-10-01T03:04:20.591Z,99079.41
2022-10-01T03:04:32.754Z,99077.72
2022-10-01T03:04:44.690Z,99071.69
2022-10-01T03:04:57.665Z,99077.88
2022-10-01T03:05:09.614Z,99081.47
2022-10-01T03:05:22.019Z,99080.53
2022-10-01T03:05:34.022Z,99077.16
2022-10-01T03:05:45.927Z,99079.50
2022-10-01T03:05:57.810Z,99075.00
2022-10-01T03:06:09.694Z,99080.13
2022-10-01T03:06:21.574Z,99077.59
2022-10-01T03:06:35.797Z,99076.59
2022-10-01T03:06:47.868Z,99073.09
2022-10-01T03:07:03.733Z,99073.78
2022-10-01T03:07:16.727Z,99070.41
2022-10-01T03:07:31.107Z,99080.69
2022-10-01T03:07:43.614Z,99074.66
2022-10-01T03:07:55.530Z,99075.47
2022-10-01T03:08:07.751Z,99072.81
2022-10-01T03:08:19.652Z,99071.88
2022-10-01T03:08:31.544Z,99073.66
2022-10-01T03:08:43.454Z,99082.22
2022-10-01T03:08:57.408Z,99070.13
2022-10-01T03:09:09.294Z,99072.66
2022-10-01T03:09:21.186Z,99070.88
2022-10-01T03:09:34.931Z,99071.69
2022-10-01T03:09:47.003Z,99073.38
2022-10-01T03:09:59.217Z,99071.69
2022-10-01T03:10:13.266Z,99075.19
2022-10-01T03:10:25.138Z,99068.16
2022-10-01T03:10:37.194Z,99067.25
2022-10-01T03:10:50.389Z,99074.28
2022-10-01T03:11:02.270Z,99071.53
2022-10-01T03:11:16.057Z,99073.22
2022-10-01T03:11:27.931Z,99071.53
2022-10-01T03:11:39.893Z,99072.31
2022-10-01T03:11:51.911Z,99073.22
2022-10-01T03:12:04.000Z,99067.16
2022-10-01T03:12:17.054Z,99071.53
2022-10-01T03:12:28.946Z,99064.66
2022-10-01T03:12:42.803Z,99066.47
2022-10-01T03:12:55.627Z,99063.78
2022-10-01T03:13:07.920Z,99061.13
2022-10-01T03:13:21.858Z,99064.66
2022-10-01T03:13:34.288Z,99060.28